Time;durP1;ratioP1;P1;durP2;ratioP2;P2;SDS_P1;SDS_P2;PMS_P1;PMS_P2;Temp;Humidity;BMP_temperature;BMP_pressure;BME280_temperature;BME280_humidity;BME280_pressure;Samples;Min_cycle;Max_cycle;Signal;HPM_P1;HPM_P2
2023/03/27 00:00:21;;;;;;;2.65;1.10;;;;;;;;;;5073412;28;20036;-66
2023/03/27 00:02:48;;;;;;;1.08;1.00;;;;;;;;;;5073020;28;20027;-60
2023/03/27 00:05:19;;;;;;;2.85;1.20;;;;;;;;;;5073101;28;20051;-59
2023/03/27 00:07:52;;;;;;;1.88;1.23;;;;;;;;;;5072968;28;20023;-59
2023/03/27 00:10:19;;;;;;;1.40;1.20;;;;;;;;;;5073285;28;20078;-59
2023/03/27 00:12:46;;;;;;;1.10;1.00;;;;;;;;;;5072979;28;20123;-60
2023/03/27 00:15:16;;;;;;;1.60;1.20;;;;;;;;;;5072836;28;20034;-59
2023/03/27 00:17:53;;;;;;;1.65;1.20;;;;;;;;;;5072803;28;20028;-59
2023/03/27 00:20:21;;;;;;;1.63;1.00;;;;;;;;;;5072838;28;20028;-65
2023/03/27 00:22:48;;;;;;;1.30;1.20;;;;;;;;;;5073055;28;20035;-59
2023/03/27 00:25:15;;;;;;;1.20;1.00;;;;;;;;;;5073059;28;20028;-60
2023/03/27 00:27:42;;;;;;;1.15;1.05;;;;;;;;;;5072686;28;20029;-66
2023/03/27 00:30:09;;;;;;;1.52;1.17;;;;;;;;;;5072670;28;20042;-67
2023/03/27 00:32:36;;;;;;;1.50;1.15;;;;;;;;;;5072575;28;20017;-65
2023/03/27 00:35:03;;;;;;;2.47;1.40;;;;;;;;;;5072201;28;20032;-67
2023/03/27 00:37:29;;;;;;;1.30;0.90;;;;;;;;;;5072752;28;20046;-66
2023/03/27 00:39:55;;;;;;;0.98;0.98;;;;;;;;;;5072551;28;20539;-66
2023/03/27 00:42:22;;;;;;;1.67;1.10;;;;;;;;;;5072786;28;20032;-58
2023/03/27 00:44:51;;;;;;;1.65;1.30;;;;;;;;;;5072815;28;20029;-60
2023/03/27 00:47:32;;;;;;;1.20;1.10;;;;;;;;;;5072374;28;20080;-59
2023/03/27 00:50:07;;;;;;;0.90;0.90;;;;;;;;;;5071036;28;20082;-59
2023/03/27 00:52:35;;;;;;;1.73;1.35;;;;;;;;;;5072389;28;20040;-59
2023/03/27 00:55:07;;;;;;;2.28;1.10;;;;;;;;;;5072386;28;20028;-66
2023/03/27 00:57:33;;;;;;;1.02;0.93;;;;;;;;;;5072290;28;20034;-66
2023/03/27 01:00:01;;;;;;;1.40;1.02;;;;;;;;;;5072409;28;20024;-60
2023/03/27 01:02:27;;;;;;;1.05;1.00;;;;;;;;;;5072254;28;20043;-66
2023/03/27 01:04:53;;;;;;;1.52;1.30;;;;;;;;;;5071132;28;20115;-59
2023/03/27 01:07:21;;;;;;;0.90;0.90;;;;;;;;;;5072216;28;20028;-59
2023/03/27 01:09:47;;;;;;;1.50;1.10;;;;;;;;;;5072268;28;20043;-62
2023/03/27 01:12:28;;;;;;;1.10;1.00;;;;;;;;;;5072516;28;20075;-66
2023/03/27 01:15:28;;;;;;;1.40;1.08;;;;;;;;;;5072221;28;20024;-64
2023/03/27 01:18:12;;;;;;;1.05;1.00;;;;;;;;;;5071485;28;20094;-65
2023/03/27 01:20:53;;;;;;;1.23;1.00;;;;;;;;;;5072142;28;20021;-66
2023/03/27 01:23:40;;;;;;;2.17;1.40;;;;;;;;;;5072234;28;20032;-66
2023/03/27 01:26:23;;;;;;;1.17;1.10;;;;;;;;;;5072059;28;20472;-64
2023/03/27 01:29:08;;;;;;;1.30;1.20;;;;;;;;;;5072452;28;20135;-65
2023/03/27 01:31:49;;;;;;;1.23;1.13;;;;;;;;;;5071987;28;20028;-60
2023/03/27 01:34:37;;;;;;;0.90;0.90;;;;;;;;;;5072087;28;20021;-65
2023/03/27 01:37:27;;;;;;;2.10;1.15;;;;;;;;;;5071968;28;20040;-65
2023/03/27 01:39:58;;;;;;;;;;;;;;;;;;5072426;28;20050;-59
2023/03/27 01:42:27;;;;;;;1.33;1.13;;;;;;;;;;5071991;28;20360;-59
2023/03/27 01:45:05;;;;;;;1.50;1.05;;;;;;;;;;5071905;28;20028;-66
2023/03/27 01:47:38;;;;;;;1.20;1.10;;;;;;;;;;5075021;28;20116;-67
2023/03/27 01:50:22;;;;;;;1.30;1.10;;;;;;;;;;5075711;28;20082;-66
2023/03/27 01:53:14;;;;;;;1.27;0.98;;;;;;;;;;5075931;28;20097;-65
2023/03/27 01:55:44;;;;;;;1.95;1.17;;;;;;;;;;5074279;28;20028;-66
2023/03/27 01:58:15;;;;;;;1.48;1.20;;;;;;;;;;5075397;28;20028;-61
2023/03/27 02:00:45;;;;;;;1.13;1.02;;;;;;;;;;5075480;28;20118;-60
2023/03/27 02:03:17;;;;;;;0.95;0.90;;;;;;;;;;5075415;28;20099;-59
2023/03/27 02:05:59;;;;;;;1.20;0.80;;;;;;;;;;5075386;28;20043;-59
2023/03/27 02:08:47;;;;;;;1.08;0.98;;;;;;;;;;5074151;28;20032;-58
2023/03/27 02:11:13;;;;;;;1.17;1.10;;;;;;;;;;5064443;28;20032;-59
2023/03/27 02:13:44;;;;;;;1.63;1.10;;;;;;;;;;5075267;28;20110;-66
2023/03/27 02:16:16;;;;;;;1.10;1.00;;;;;;;;;;5073982;28;20050;-66
2023/03/27 02:18:48;;;;;;;1.52;1.00;;;;;;;;;;5075022;28;20139;-67
2023/03/27 02:21:14;;;;;;;1.52;1.30;;;;;;;;;;5075136;28;20031;-66
2023/03/27 02:23:40;;;;;;;1.35;1.08;;;;;;;;;;5075004;28;20107;-64
2023/03/27 02:26:10;;;;;;;1.20;1.00;;;;;;;;;;5075310;28;20078;-66
2023/03/27 02:28:47;;;;;;;1.20;1.10;;;;;;;;;;5075188;28;20025;-59
2023/03/27 02:31:28;;;;;;;1.52;1.13;;;;;;;;;;5074990;28;20048;-65
2023/03/27 02:33:59;;;;;;;1.08;1.02;;;;;;;;;;5074879;28;20035;-60
2023/03/27 02:36:40;;;;;;;1.08;1.02;;;;;;;;;;5075171;28;20103;-66
2023/03/27 02:39:17;;;;;;;1.08;1.08;;;;;;;;;;5074927;28;20032;-61
2023/03/27 02:41:49;;;;;;;1.33;1.20;;;;;;;;;;5074853;28;20032;-59
2023/03/27 02:44:19;;;;;;;1.30;1.20;;;;;;;;;;5074595;28;20078;-58
2023/03/27 02:47:06;;;;;;;1.33;0.90;;;;;;;;;;5075544;28;20052;-58
2023/03/27 02:49:38;;;;;;;1.17;1.08;;;;;;;;;;5075285;28;20028;-59
2023/03/27 02:52:18;;;;;;;2.15;1.10;;;;;;;;;;5075394;28;20070;-65
2023/03/27 02:54:52;;;;;;;0.93;0.90;;;;;;;;;;5076480;28;20400;-59
2023/03/27 02:57:21;;;;;;;1.20;1.10;;;;;;;;;;5074548;28;20135;-59
2023/03/27 02:59:55;;;;;;;1.33;1.10;;;;;;;;;;5074444;28;20020;-59
2023/03/27 03:02:25;;;;;;;1.02;0.95;;;;;;;;;;5074305;28;20024;-61
2023/03/27 03:04:55;;;;;;;1.45;1.20;;;;;;;;;;5074594;28;20095;-59
2023/03/27 03:07:25;;;;;;;1.55;1.23;;;;;;;;;;5074541;28;20025;-59
2023/03/27 03:09:52;;;;;;;1.02;1.00;;;;;;;;;;5074120;28;20035;-63
2023/03/27 03:12:18;;;;;;;1.83;1.08;;;;;;;;;;5074095;28;20025;-59
2023/03/27 03:14:44;;;;;;;1.65;1.10;;;;;;;;;;5074107;28;20025;-67
2023/03/27 03:17:11;;;;;;;1.50;1.00;;;;;;;;;;5074188;28;20035;-59
2023/03/27 03:19:37;;;;;;;1.83;1.10;;;;;;;;;;5074031;28;20361;-59
2023/03/27 03:22:03;;;;;;;1.48;1.10;;;;;;;;;;5072944;28;20031;-59
2023/03/27 03:24:29;;;;;;;1.27;1.20;;;;;;;;;;5073967;28;20491;-60
2023/03/27 03:26:54;;;;;;;1.42;0.90;;;;;;;;;;5073827;28;20036;-60
2023/03/27 03:29:20;;;;;;;1.20;1.10;;;;;;;;;;5074068;28;20039;-59
2023/03/27 03:31:46;;;;;;;2.63;1.17;;;;;;;;;;5073721;28;20017;-61
2023/03/27 03:34:21;;;;;;;1.02;0.93;;;;;;;;;;5074005;28;20032;-62
2023/03/27 03:36:47;;;;;;;1.10;1.00;;;;;;;;;;5073634;28;20024;-60
2023/03/27 03:39:14;;;;;;;1.42;1.05;;;;;;;;;;5073793;28;20028;-66
2023/03/27 03:41:40;;;;;;;1.70;1.00;;;;;;;;;;5073512;28;20105;-60
2023/03/27 03:44:07;;;;;;;2.15;0.98;;;;;;;;;;5073760;28;20029;-65
2023/03/27 03:46:33;;;;;;;1.30;1.20;;;;;;;;;;5073247;28;20439;-67
2023/03/27 03:48:59;;;;;;;1.73;1.17;;;;;;;;;;5073363;28;20024;-61
2023/03/27 03:51:25;;;;;;;1.92;1.20;;;;;;;;;;5073283;28;20036;-67
2023/03/27 03:53:50;;;;;;;1.50;1.10;;;;;;;;;;5073248;28;20025;-67
2023/03/27 03:56:17;;;;;;;1.30;1.10;;;;;;;;;;5073557;28;20029;-67
2023/03/27 03:58:42;;;;;;;1.65;1.10;;;;;;;;;;5073202;28;20040;-67
2023/03/27 04:01:09;;;;;;;1.25;1.00;;;;;;;;;;5073410;28;20025;-66
2023/03/27 04:03:34;;;;;;;0.95;0.95;;;;;;;;;;5073485;28;20027;-65
2023/03/27 04:06:04;;;;;;;2.28;1.00;;;;;;;;;;5073066;28;20395;-60
2023/03/27 04:08:30;;;;;;;1.13;1.02;;;;;;;;;;5072307;28;20021;-65
2023/03/27 04:10:56;;;;;;;1.80;1.10;;;;;;;;;;5073220;28;20161;-63
2023/03/27 04:13:22;;;;;;;1.77;1.40;;;;;;;;;;5072942;28;20103;-59
2023/03/27 04:15:48;;;;;;;1.38;1.00;;;;;;;;;;5071510;28;20031;-66
2023/03/27 04:18:14;;;;;;;1.35;0.98;;;;;;;;;;5072727;28;20129;-59
2023/03/27 04:20:40;;;;;;;0.93;0.88;;;;;;;;;;5072995;28;20250;-60
2023/03/27 04:23:07;;;;;;;0.90;0.85;;;;;;;;;;5073073;28;20020;-67
2023/03/27 04:25:33;;;;;;;1.20;0.90;;;;;;;;;;5072623;28;20074;-64
2023/03/27 04:28:01;;;;;;;1.15;1.02;;;;;;;;;;5072979;28;20029;-66
2023/03/27 04:30:27;;;;;;;0.80;0.80;;;;;;;;;;5071456;28;20029;-64
2023/03/27 04:32:53;;;;;;;0.93;0.80;;;;;;;;;;5072864;28;20070;-67
2023/03/27 04:35:19;;;;;;;1.67;1.10;;;;;;;;;;5072625;28;20472;-68
2023/03/27 04:37:46;;;;;;;0.80;0.80;;;;;;;;;;5072585;28;20090;-66
2023/03/27 04:40:14;;;;;;;1.30;1.20;;;;;;;;;;5072456;28;20036;-64
2023/03/27 04:42:43;;;;;;;1.00;1.00;;;;;;;;;;5072580;28;20025;-65
2023/03/27 04:45:16;;;;;;;0.82;0.80;;;;;;;;;;5072529;28;20024;-66
2023/03/27 04:47:42;;;;;;;1.02;0.93;;;;;;;;;;5072350;28;20182;-65
2023/03/27 04:50:10;;;;;;;1.20;1.05;;;;;;;;;;5072689;28;20033;-66
2023/03/27 04:52:35;;;;;;;1.00;1.00;;;;;;;;;;5072636;28;20414;-64
2023/03/27 04:55:03;;;;;;;1.27;1.10;;;;;;;;;;5072293;28;20074;-66
2023/03/27 04:57:30;;;;;;;1.10;1.00;;;;;;;;;;5072180;28;20491;-64
2023/03/27 05:00:00;;;;;;;1.10;1.00;;;;;;;;;;5072218;28;20081;-66
2023/03/27 05:02:26;;;;;;;1.00;1.00;;;;;;;;;;5072601;28;20027;-66
2023/03/27 05:04:57;;;;;;;0.80;0.80;;;;;;;;;;5072154;28;20024;-67
2023/03/27 05:07:27;;;;;;;0.80;0.80;;;;;;;;;;5072182;28;20028;-64
2023/03/27 05:09:53;;;;;;;1.33;0.93;;;;;;;;;;5072123;28;20103;-60
2023/03/27 05:12:20;;;;;;;1.10;1.00;;;;;;;;;;5072428;28;20359;-65
2023/03/27 05:14:47;;;;;;;1.00;0.88;;;;;;;;;;5072114;28;20021;-65
2023/03/27 05:17:14;;;;;;;0.90;0.90;;;;;;;;;;5071902;28;20115;-64
2023/03/27 05:19:40;;;;;;;1.13;0.98;;;;;;;;;;5073049;28;20060;-64
2023/03/27 05:22:06;;;;;;;1.10;0.95;;;;;;;;;;5076088;28;20569;-63
2023/03/27 05:24:32;;;;;;;1.40;1.15;;;;;;;;;;5076314;28;20058;-60
2023/03/27 05:26:58;;;;;;;1.10;1.10;;;;;;;;;;5075999;28;20099;-60
2023/03/27 05:29:24;;;;;;;1.20;1.00;;;;;;;;;;5076131;28;20028;-64
2023/03/27 05:31:50;;;;;;;3.45;1.10;;;;;;;;;;5075827;28;20031;-64
2023/03/27 05:34:16;;;;;;;1.23;1.08;;;;;;;;;;5075862;28;20024;-62
2023/03/27 05:36:42;;;;;;;2.00;1.10;;;;;;;;;;5075754;28;20499;-63
2023/03/27 05:39:08;;;;;;;1.30;1.20;;;;;;;;;;5075796;28;20032;-67
2023/03/27 05:41:34;;;;;;;1.30;1.20;;;;;;;;;;5075774;28;20021;-61
2023/03/27 05:44:00;;;;;;;1.10;1.10;;;;;;;;;;5075649;28;20024;-66
2023/03/27 05:46:25;;;;;;;1.48;1.20;;;;;;;;;;5074105;28;20044;-63
2023/03/27 05:48:51;;;;;;;1.10;1.00;;;;;;;;;;5075672;28;20021;-65
2023/03/27 05:51:17;;;;;;;2.60;1.25;;;;;;;;;;5075560;28;20376;-67
2023/03/27 05:53:42;;;;;;;1.00;1.00;;;;;;;;;;5075564;28;20020;-61
2023/03/27 05:56:09;;;;;;;2.65;1.30;;;;;;;;;;5075456;28;20103;-61
2023/03/27 05:58:35;;;;;;;1.00;1.00;;;;;;;;;;5075364;28;20154;-61
2023/03/27 06:01:02;;;;;;;1.20;1.10;;;;;;;;;;5075308;28;20076;-63
2023/03/27 06:03:34;;;;;;;1.30;1.20;;;;;;;;;;5075363;28;20025;-66
2023/03/27 06:06:05;;;;;;;1.20;1.10;;;;;;;;;;5075222;28;20039;-64
2023/03/27 06:08:32;;;;;;;1.30;1.20;;;;;;;;;;5075275;28;20553;-60
2023/03/27 06:10:58;;;;;;;1.70;1.30;;;;;;;;;;5075436;28;20039;-65
2023/03/27 06:13:23;;;;;;;1.13;1.02;;;;;;;;;;5075158;28;20480;-61
2023/03/27 06:15:52;;;;;;;1.15;1.08;;;;;;;;;;5074966;28;20063;-62
2023/03/27 06:18:18;;;;;;;1.17;1.10;;;;;;;;;;5075042;28;20498;-66
2023/03/27 06:20:44;;;;;;;1.20;1.10;;;;;;;;;;5075284;28;20103;-63
2023/03/27 06:23:09;;;;;;;1.30;1.20;;;;;;;;;;5074927;28;20055;-61
2023/03/27 06:25:37;;;;;;;1.40;1.30;;;;;;;;;;5074867;28;20021;-62
2023/03/27 06:28:07;;;;;;;1.30;1.20;;;;;;;;;;5074857;28;20111;-65
2023/03/27 06:30:33;;;;;;;1.30;1.20;;;;;;;;;;5074836;28;20048;-61
2023/03/27 06:32:59;;;;;;;1.30;1.20;;;;;;;;;;5074018;28;20500;-62
2023/03/27 06:35:28;;;;;;;1.50;1.40;;;;;;;;;;5074733;28;20384;-60
2023/03/27 06:38:03;;;;;;;1.65;1.40;;;;;;;;;;5074942;28;20093;-60
2023/03/27 06:40:31;;;;;;;1.60;1.40;;;;;;;;;;5074925;28;20394;-67
2023/03/27 06:43:08;;;;;;;1.60;1.27;;;;;;;;;;5074728;28;20032;-66
2023/03/27 06:45:42;;;;;;;1.35;1.25;;;;;;;;;;5074509;28;20025;-65
2023/03/27 06:48:09;;;;;;;1.65;1.38;;;;;;;;;;5074413;28;20513;-63
2023/03/27 06:50:35;;;;;;;2.08;1.27;;;;;;;;;;5068756;28;20032;-63
2023/03/27 06:53:01;;;;;;;1.40;1.30;;;;;;;;;;5072941;28;20107;-64
2023/03/27 06:55:28;;;;;;;1.50;1.40;;;;;;;;;;5071513;28;20511;-66
2023/03/27 06:57:56;;;;;;;1.35;1.25;;;;;;;;;;5072316;28;20025;-67
2023/03/27 07:00:25;;;;;;;1.40;1.30;;;;;;;;;;5074377;28;20016;-65
2023/03/27 07:02:59;;;;;;;2.47;1.40;;;;;;;;;;5072695;28;20107;-68
2023/03/27 07:05:27;;;;;;;1.45;1.35;;;;;;;;;;5073313;28;20109;-65
2023/03/27 07:07:53;;;;;;;1.30;1.20;;;;;;;;;;5074175;28;20031;-61
2023/03/27 07:10:20;;;;;;;1.33;1.23;;;;;;;;;;5074356;28;20330;-63
2023/03/27 07:12:51;;;;;;;1.40;1.30;;;;;;;;;;5074111;28;20040;-68
2023/03/27 07:15:19;;;;;;;1.60;1.50;;;;;;;;;;5072616;28;20024;-67
2023/03/27 07:17:55;;;;;;;1.35;1.23;;;;;;;;;;5073468;28;20478;-66
2023/03/27 07:20:21;;;;;;;1.70;1.60;;;;;;;;;;5072668;28;20028;-66
2023/03/27 07:22:47;;;;;;;1.92;1.30;;;;;;;;;;5073760;28;20551;-62
2023/03/27 07:25:12;;;;;;;1.63;1.50;;;;;;;;;;5073766;28;20024;-62
2023/03/27 07:27:38;;;;;;;1.40;1.30;;;;;;;;;;5073993;28;20070;-68
2023/03/27 07:30:06;;;;;;;1.50;1.40;;;;;;;;;;5073800;28;20059;-65
2023/03/27 07:32:35;;;;;;;1.83;1.70;;;;;;;;;;5073438;28;20032;-61
2023/03/27 07:35:04;;;;;;;1.50;1.40;;;;;;;;;;5073980;28;20380;-62
2023/03/27 07:37:30;;;;;;;1.63;1.30;;;;;;;;;;5073531;28;20040;-61
2023/03/27 07:39:55;;;;;;;1.48;1.38;;;;;;;;;;5073758;28;20102;-64
2023/03/27 07:42:21;;;;;;;1.67;1.58;;;;;;;;;;5073519;28;20077;-66
2023/03/27 07:44:46;;;;;;;1.45;1.35;;;;;;;;;;5073790;28;20037;-66
2023/03/27 07:47:12;;;;;;;1.70;1.60;;;;;;;;;;5073104;28;20483;-64
2023/03/27 07:49:38;;;;;;;1.70;1.45;;;;;;;;;;5073326;28;20153;-65
2023/03/27 07:52:05;;;;;;;1.40;1.30;;;;;;;;;;5088853;28;20044;-62
2023/03/27 07:54:31;;;;;;;1.60;1.40;;;;;;;;;;5073541;28;20090;-60
2023/03/27 07:56:56;;;;;;;2.35;1.50;;;;;;;;;;5073131;28;20472;-59
2023/03/27 07:59:23;;;;;;;1.60;1.50;;;;;;;;;;5073367;28;20028;-66
2023/03/27 08:01:49;;;;;;;1.50;1.40;;;;;;;;;;5073052;28;20036;-64
2023/03/27 08:04:18;;;;;;;1.50;1.40;;;;;;;;;;5073060;28;20539;-61
2023/03/27 08:06:44;;;;;;;1.70;1.60;;;;;;;;;;5072830;28;20029;-64
2023/03/27 08:09:09;;;;;;;1.55;1.30;;;;;;;;;;5073004;28;20040;-63
2023/03/27 08:11:37;;;;;;;1.95;1.50;;;;;;;;;;5071612;28;20380;-60
2023/03/27 08:14:03;;;;;;;1.50;1.40;;;;;;;;;;5072626;28;20024;-67
2023/03/27 08:16:29;;;;;;;1.50;1.40;;;;;;;;;;5072696;28;20112;-65
2023/03/27 08:18:56;;;;;;;1.67;1.58;;;;;;;;;;5072935;28;20066;-61
2023/03/27 08:21:22;;;;;;;1.92;1.40;;;;;;;;;;5072971;28;20090;-61
2023/03/27 08:23:48;;;;;;;1.50;1.40;;;;;;;;;;5072668;28;20486;-60
2023/03/27 08:26:14;;;;;;;1.58;1.48;;;;;;;;;;5072362;28;20040;-60
2023/03/27 08:28:41;;;;;;;2.38;1.60;;;;;;;;;;5072630;28;20523;-61
2023/03/27 08:31:10;;;;;;;1.63;1.52;;;;;;;;;;5072621;28;20020;-64
2023/03/27 08:33:36;;;;;;;2.17;1.60;;;;;;;;;;5072712;28;20020;-65
2023/03/27 08:36:03;;;;;;;1.60;1.50;;;;;;;;;;5072633;28;20058;-62
2023/03/27 08:38:32;;;;;;;1.73;1.63;;;;;;;;;;5072769;28;20033;-62
2023/03/27 08:40:58;;;;;;;1.80;1.70;;;;;;;;;;5072439;28;20103;-60
2023/03/27 08:43:44;;;;;;;1.73;1.63;;;;;;;;;;5072475;28;20039;-60
2023/03/27 08:46:12;;;;;;;1.75;1.60;;;;;;;;;;5072366;28;20066;-68
2023/03/27 08:48:42;;;;;;;1.77;1.63;;;;;;;;;;5072390;28;20029;-68
2023/03/27 08:51:18;;;;;;;2.40;1.52;;;;;;;;;;5071225;28;20388;-64
2023/03/27 08:53:54;;;;;;;1.85;1.40;;;;;;;;;;5072377;28;20040;-67
2023/03/27 08:56:20;;;;;;;1.73;1.63;;;;;;;;;;5070692;28;20170;-65
2023/03/27 08:58:47;;;;;;;2.58;1.52;;;;;;;;;;5072256;28;20127;-59
2023/03/27 09:01:18;;;;;;;1.60;1.50;;;;;;;;;;5070959;28;20392;-62
2023/03/27 09:03:51;;;;;;;1.70;1.60;;;;;;;;;;5072352;28;20025;-66
2023/03/27 09:06:23;;;;;;;1.55;1.45;;;;;;;;;;5070871;28;20083;-65
2023/03/27 09:09:10;;;;;;;1.70;1.60;;;;;;;;;;5072469;28;20729;-67
2023/03/27 09:12:00;;;;;;;2.00;1.80;;;;;;;;;;5072267;28;20032;-65
2023/03/27 09:14:36;;;;;;;1.60;1.50;;;;;;;;;;5072163;28;20032;-67
2023/03/27 09:17:20;;;;;;;1.80;1.70;;;;;;;;;;5072109;28;20404;-63
2023/03/27 09:19:54;;;;;;;1.73;1.50;;;;;;;;;;5072134;28;20476;-67
2023/03/27 09:22:27;;;;;;;1.80;1.70;;;;;;;;;;5072564;28;20071;-61
2023/03/27 09:24:56;;;;;;;1.92;1.70;;;;;;;;;;5072441;28;20048;-60
2023/03/27 09:27:25;;;;;;;1.80;1.70;;;;;;;;;;5072012;28;20024;-59
2023/03/27 09:30:23;;;;;;;1.88;1.77;;;;;;;;;;5071904;28;20363;-59
2023/03/27 09:32:57;;;;;;;1.80;1.70;;;;;;;;;;5067656;28;20041;-66
2023/03/27 09:35:22;;;;;;;1.80;1.70;;;;;;;;;;5072348;28;20387;-65
2023/03/27 09:37:57;;;;;;;1.63;1.52;;;;;;;;;;5072011;28;20083;-63
2023/03/27 09:40:32;;;;;;;1.80;1.70;;;;;;;;;;5071907;28;20036;-66
2023/03/27 09:43:11;;;;;;;1.83;1.67;;;;;;;;;;5070777;28;20020;-67
2023/03/27 09:45:39;;;;;;;2.17;1.70;;;;;;;;;;5071782;28;20020;-64
2023/03/27 09:48:13;;;;;;;2.03;1.88;;;;;;;;;;5071129;28;20053;-62
2023/03/27 09:50:46;;;;;;;1.80;1.70;;;;;;;;;;5071787;28;20029;-67
2023/03/27 09:53:22;;;;;;;1.90;1.70;;;;;;;;;;5069949;28;20086;-65
2023/03/27 09:55:51;;;;;;;1.70;1.60;;;;;;;;;;5065529;28;20025;-59
2023/03/27 09:58:30;;;;;;;1.98;1.77;;;;;;;;;;5065006;28;20044;-58
2023/03/27 10:01:14;;;;;;;1.92;1.77;;;;;;;;;;5066030;28;20150;-59
2023/03/27 10:03:47;;;;;;;2.05;1.80;;;;;;;;;;5066008;28;20025;-67
2023/03/27 10:06:23;;;;;;;2.10;1.90;;;;;;;;;;5062971;28;20035;-66
2023/03/27 10:08:49;;;;;;;1.73;1.63;;;;;;;;;;5082637;28;20419;-67
2023/03/27 10:11:19;;;;;;;1.77;1.67;;;;;;;;;;5074137;28;20012;-67
2023/03/27 10:13:47;;;;;;;1.77;1.67;;;;;;;;;;5073265;28;20013;-65
2023/03/27 10:16:16;;;;;;;2.00;1.90;;;;;;;;;;5072103;28;20032;-66
2023/03/27 10:18:45;;;;;;;1.70;1.60;;;;;;;;;;5073832;28;20022;-64
2023/03/27 10:21:24;;;;;;;1.85;1.75;;;;;;;;;;5073892;28;20017;-67
2023/03/27 10:23:51;;;;;;;1.70;1.60;;;;;;;;;;5073896;28;20593;-59
2023/03/27 10:26:20;;;;;;;1.83;1.60;;;;;;;;;;5072477;28;20029;-61
2023/03/27 10:28:53;;;;;;;1.90;1.80;;;;;;;;;;5085308;28;20088;-68
2023/03/27 10:31:28;;;;;;;1.70;1.60;;;;;;;;;;5078760;28;20028;-65
2023/03/27 10:33:55;;;;;;;1.80;1.70;;;;;;;;;;5070508;28;20055;-64
2023/03/27 10:36:23;;;;;;;2.22;1.70;;;;;;;;;;5070689;28;20043;-62
2023/03/27 10:38:56;;;;;;;1.95;1.85;;;;;;;;;;5073345;28;20036;-60
2023/03/27 10:41:26;;;;;;;2.28;2.00;;;;;;;;;;5075013;28;20028;-60
2023/03/27 10:43:52;;;;;;;;;;;;;;;;;;5074829;28;20047;-59
2023/03/27 10:46:28;;;;;;;2.10;1.90;;;;;;;;;;5073821;28;20431;-59
2023/03/27 10:49:09;;;;;;;2.15;1.80;;;;;;;;;;5073615;28;20104;-61
2023/03/27 10:51:44;;;;;;;1.63;1.52;;;;;;;;;;5072685;28;20028;-60
2023/03/27 10:54:31;;;;;;;2.05;1.80;;;;;;;;;;5072598;28;20541;-59
2023/03/27 10:57:01;;;;;;;1.60;1.50;;;;;;;;;;5073751;28;20142;-63
2023/03/27 10:59:37;;;;;;;2.00;1.80;;;;;;;;;;5073669;28;20073;-63
2023/03/27 11:02:15;;;;;;;2.00;1.80;;;;;;;;;;5073642;28;20025;-60
2023/03/27 11:05:17;;;;;;;1.90;1.80;;;;;;;;;;5073852;28;20025;-63
2023/03/27 11:07:46;;;;;;;1.80;1.70;;;;;;;;;;5074189;28;20115;-66
2023/03/27 11:10:25;;;;;;;2.00;1.70;;;;;;;;;;5074251;28;20107;-62
2023/03/27 11:12:58;;;;;;;1.75;1.65;;;;;;;;;;5074089;28;20056;-64
2023/03/27 11:15:35;;;;;;;1.70;1.60;;;;;;;;;;5074062;28;20035;-64
2023/03/27 11:18:13;;;;;;;1.88;1.77;;;;;;;;;;5073724;28;20036;-63
2023/03/27 11:20:50;;;;;;;2.08;1.88;;;;;;;;;;5073727;28;20020;-66
2023/03/27 11:23:38;;;;;;;2.03;1.88;;;;;;;;;;5073755;28;20024;-64
2023/03/27 11:26:07;;;;;;;1.80;1.70;;;;;;;;;;5072827;28;20025;-65
2023/03/27 11:28:56;;;;;;;1.77;1.65;;;;;;;;;;5072378;28;20021;-60
2023/03/27 11:31:44;;;;;;;1.92;1.80;;;;;;;;;;5073500;28;20509;-61
2023/03/27 11:34:36;;;;;;;1.80;1.70;;;;;;;;;;5073560;28;20203;-61
2023/03/27 11:37:22;;;;;;;1.90;1.80;;;;;;;;;;5073632;28;20025;-64
2023/03/27 11:39:55;;;;;;;2.17;1.98;;;;;;;;;;5073442;28;20508;-65
2023/03/27 11:42:30;;;;;;;2.10;2.00;;;;;;;;;;5073372;28;20060;-68
2023/03/27 11:44:57;;;;;;;2.08;1.90;;;;;;;;;;5072417;28;20028;-67
2023/03/27 11:48:00;;;;;;;2.22;1.90;;;;;;;;;;5073205;28;20044;-67
2023/03/27 11:50:32;;;;;;;2.42;2.00;;;;;;;;;;5073439;28;20040;-67
2023/03/27 11:53:10;;;;;;;2.05;1.92;;;;;;;;;;5073438;28;20032;-63
2023/03/27 11:56:09;;;;;;;2.10;1.77;;;;;;;;;;5073223;28;20115;-59
2023/03/27 11:58:58;;;;;;;3.75;2.20;;;;;;;;;;5073336;28;20060;-64
2023/03/27 12:01:39;;;;;;;2.13;1.92;;;;;;;;;;5073379;28;20021;-67
2023/03/27 12:04:39;;;;;;;2.20;2.00;;;;;;;;;;5072959;28;20067;-65
2023/03/27 12:07:38;;;;;;;2.53;2.13;;;;;;;;;;5073139;28;20029;-64
2023/03/27 12:10:22;;;;;;;2.30;2.10;;;;;;;;;;5072832;28;20162;-67
2023/03/27 12:12:47;;;;;;;2.55;1.92;;;;;;;;;;5072787;28;20044;-65
2023/03/27 12:15:16;;;;;;;2.20;2.00;;;;;;;;;;5072863;28;20068;-67
2023/03/27 12:17:52;;;;;;;2.05;1.95;;;;;;;;;;5072634;28;20025;-62
2023/03/27 12:20:35;;;;;;;3.95;3.55;;;;;;;;;;5072800;28;20025;-59
2023/03/27 12:23:36;;;;;;;6.18;3.75;;;;;;;;;;5072807;28;20024;-62
2023/03/27 12:26:29;;;;;;;3.42;2.88;;;;;;;;;;5071478;28;20399;-61
2023/03/27 12:29:17;;;;;;;5.28;3.20;;;;;;;;;;5072677;28;20505;-64
2023/03/27 12:31:55;;;;;;;3.15;2.60;;;;;;;;;;5072900;28;20028;-60
2023/03/27 12:34:49;;;;;;;10.77;2.53;;;;;;;;;;5072875;28;20032;-65
2023/03/27 12:37:17;;;;;;;6.85;2.90;;;;;;;;;;5072409;28;20085;-61
2023/03/27 12:39:52;;;;;;;6.93;4.80;;;;;;;;;;5072437;28;20039;-60
2023/03/27 12:42:51;;;;;;;4.40;4.00;;;;;;;;;;5072405;28;20021;-60
2023/03/27 12:45:22;;;;;;;3.10;2.80;;;;;;;;;;5072451;28;20036;-60
2023/03/27 12:48:09;;;;;;;3.63;2.80;;;;;;;;;;5071900;28;20140;-59
2023/03/27 12:50:51;;;;;;;3.50;2.53;;;;;;;;;;5072245;28;20045;-59
2023/03/27 12:53:25;;;;;;;6.97;4.90;;;;;;;;;;5072098;28;20032;-61
2023/03/27 12:56:12;;;;;;;5.60;4.32;;;;;;;;;;5072583;28;20036;-63
2023/03/27 12:58:38;;;;;;;4.75;4.10;;;;;;;;;;5072063;28;20491;-60
2023/03/27 13:01:09;;;;;;;4.18;3.47;;;;;;;;;;5072144;28;20025;-59
2023/03/27 13:04:09;;;;;;;6.53;3.63;;;;;;;;;;5070687;28;20028;-59
2023/03/27 13:06:56;;;;;;;3.38;3.08;;;;;;;;;;5072450;28;20033;-59
2023/03/27 13:09:33;;;;;;;4.78;3.20;;;;;;;;;;5072327;28;20020;-62
2023/03/27 13:12:17;;;;;;;8.02;3.15;;;;;;;;;;5072052;28;20097;-63
2023/03/27 13:15:11;;;;;;;18.63;3.83;;;;;;;;;;5072204;28;20647;-69
2023/03/27 13:17:42;;;;;;;8.02;3.72;;;;;;;;;;5071967;28;20115;-68
2023/03/27 13:20:23;;;;;;;8.13;3.53;;;;;;;;;;5072265;28;20024;-60
2023/03/27 13:23:08;;;;;;;9.27;3.55;;;;;;;;;;5072113;28;20082;-69
2023/03/27 13:25:46;;;;;;;5.63;3.50;;;;;;;;;;5072033;28;20024;-68
2023/03/27 13:28:31;;;;;;;9.07;3.60;;;;;;;;;;5072190;28;20024;-61
2023/03/27 13:30:58;;;;;;;11.68;3.70;;;;;;;;;;5072059;28;20025;-67
2023/03/27 13:33:30;;;;;;;12.77;4.00;;;;;;;;;;5070737;28;20082;-68
2023/03/27 13:35:56;;;;;;;13.60;3.78;;;;;;;;;;5072038;28;20036;-68
2023/03/27 13:38:47;;;;;;;15.43;3.72;;;;;;;;;;5071787;28;20024;-66
2023/03/27 13:41:31;;;;;;;;;;;;;;;;;;5073738;28;20375;-68
2023/03/27 13:43:59;;;;;;;11.70;3.65;;;;;;;;;;5076069;28;19908;-69
2023/03/27 13:46:28;;;;;;;12.00;3.90;;;;;;;;;;5075532;28;20159;-65
2023/03/27 13:49:08;;;;;;;12.57;4.25;;;;;;;;;;5075939;28;20071;-68
2023/03/27 13:51:39;;;;;;;;;;;;;;;;;;5076047;28;20120;-69
2023/03/27 13:54:26;;;;;;;12.02;4.10;;;;;;;;;;5075858;28;19989;-67
2023/03/27 13:57:23;;;;;;;10.73;4.35;;;;;;;;;;5075605;28;20031;-68
2023/03/27 14:00:22;;;;;;;10.25;3.70;;;;;;;;;;5061098;28;20608;-67
2023/03/27 14:03:19;;;;;;;11.52;3.53;;;;;;;;;;5075495;28;20051;-68
2023/03/27 14:06:22;;;;;;;8.00;3.58;;;;;;;;;;5075760;28;20025;-63
2023/03/27 14:09:12;;;;;;;8.98;3.92;;;;;;;;;;5075431;28;20021;-61
2023/03/27 14:12:03;;;;;;;8.98;3.58;;;;;;;;;;5075398;28;20029;-69
2023/03/27 14:14:51;;;;;;;5.90;3.58;;;;;;;;;;5075526;28;20063;-67
2023/03/27 14:17:34;;;;;;;10.40;3.80;;;;;;;;;;5075078;28;20111;-63
2023/03/27 14:20:30;;;;;;;8.95;3.72;;;;;;;;;;5075016;28;20035;-68
2023/03/27 14:23:25;;;;;;;5.38;3.58;;;;;;;;;;5075143;28;20025;-60
2023/03/27 14:26:02;;;;;;;7.93;3.70;;;;;;;;;;5075171;28;20039;-66
2023/03/27 14:28:54;;;;;;;9.23;3.55;;;;;;;;;;5073677;28;20108;-68
2023/03/27 14:31:22;;;;;;;8.20;3.60;;;;;;;;;;5074877;28;20505;-69
2023/03/27 14:33:59;;;;;;;9.80;3.83;;;;;;;;;;5073606;28;20032;-69
2023/03/27 14:36:27;;;;;;;7.78;3.67;;;;;;;;;;5075030;28;20025;-67
2023/03/27 14:38:58;;;;;;;10.30;4.10;;;;;;;;;;5074756;28;20029;-68
2023/03/27 14:41:24;;;;;;;7.68;3.97;;;;;;;;;;5074882;28;20021;-69
2023/03/27 14:43:52;;;;;;;8.30;4.00;;;;;;;;;;5074636;28;20021;-67
2023/03/27 14:46:25;;;;;;;7.93;3.35;;;;;;;;;;5074430;28;20516;-68
2023/03/27 14:48:58;;;;;;;5.78;3.83;;;;;;;;;;5074730;28;20036;-64
2023/03/27 14:51:33;;;;;;;11.98;3.90;;;;;;;;;;5073375;28;20079;-63
2023/03/27 14:54:05;;;;;;;6.72;3.53;;;;;;;;;;5073823;28;20468;-68
2023/03/27 14:56:35;;;;;;;9.85;3.60;;;;;;;;;;5070358;28;20035;-67
2023/03/27 14:59:05;;;;;;;9.73;3.75;;;;;;;;;;5066623;28;20046;-68
2023/03/27 15:01:33;;;;;;;7.50;3.83;;;;;;;;;;5072456;28;20032;-63
2023/03/27 15:04:01;;;;;;;7.90;3.72;;;;;;;;;;5072507;28;20320;-67
2023/03/27 15:06:27;;;;;;;12.38;3.50;;;;;;;;;;5072136;28;20336;-66
2023/03/27 15:08:58;;;;;;;5.80;3.47;;;;;;;;;;5071907;28;20037;-66
2023/03/27 15:11:36;;;;;;;4.75;3.65;;;;;;;;;;5072087;28;20472;-67
2023/03/27 15:14:02;;;;;;;5.35;3.60;;;;;;;;;;5072868;28;20064;-67
2023/03/27 15:16:30;;;;;;;6.47;3.58;;;;;;;;;;5074296;28;20051;-67